Time;durP1;ratioP1;P1;durP2;ratioP2;P2;SDS_P1;SDS_P2;PMS_P1;PMS_P2;Temp;Humidity;BMP_temperature;BMP_pressure;BME280_temperature;BME280_humidity;BME280_pressure;Samples;Min_cycle;Max_cycle;Signal;HPM_P1;HPM_P2
2021/12/01 00:01:40;;;;;;;0.10;0.10;;;;;;;6.90;65.92;98420.81;5045512;23;20226;-83
2021/12/01 00:04:29;;;;;;;0.00;0.00;;;;;;;7.24;65.59;98488.56;5151441;23;20209;-83
2021/12/01 00:07:11;;;;;;;0.20;0.20;;;;;;;7.16;65.48;98467.56;5063792;23;20222;-83
2021/12/01 00:10:50;;;;;;;0.13;0.10;;;;;;;7.23;65.07;98481.63;5053672;23;20226;-83
2021/12/01 00:13:35;;;;;;;0.00;0.00;;;;;;;7.28;65.63;98482.56;5052029;23;20233;-83
2021/12/01 00:17:12;;;;;;;0.30;0.30;;;;;;;7.26;65.37;98489.16;5065195;23;20201;-83
2021/12/01 00:20:39;;;;;;;0.00;0.00;;;;;;;7.22;65.94;98482.66;5074986;28;20281;-83
2021/12/01 00:23:20;;;;;;;0.20;0.20;;;;;;;7.23;65.01;98487.75;5161139;23;20229;-83
2021/12/01 00:26:24;;;;;;;0.00;0.00;;;;;;;7.28;64.79;98498.53;5051386;23;20230;-83
2021/12/01 00:29:16;;;;;;;0.10;0.10;;;;;;;7.36;64.98;98500.91;5111999;22;20248;-83
2021/12/01 00:32:10;;;;;;;0.20;0.20;;;;;;;7.15;64.68;98501.38;5105257;23;20257;-83
2021/12/01 00:35:08;;;;;;;0.00;0.00;;;;;;;7.33;65.10;98532.50;5066474;28;20526;-83
2021/12/01 00:37:47;;;;;;;0.00;0.00;;;;;;;7.42;64.95;98510.63;5053777;28;20678;-82
2021/12/01 00:40:17;;;;;;;0.00;0.00;;;;;;;7.44;64.68;98515.75;5054039;28;20283;-83
2021/12/01 00:42:44;;;;;;;0.07;0.07;;;;;;;7.37;65.34;98505.19;5053994;28;20234;-83
2021/12/01 00:45:25;;;;;;;0.00;0.00;;;;;;;7.34;65.15;98510.97;5071290;28;20216;-83
2021/12/01 00:48:05;;;;;;;0.00;0.00;;;;;;;7.37;65.38;98542.47;5071067;28;20209;-83
2021/12/01 00:51:00;;;;;;;0.03;0.03;;;;;;;7.39;65.56;98531.59;5060723;28;20297;-83
2021/12/01 00:53:26;;;;;;;0.00;0.00;;;;;;;7.25;65.51;98524.81;5053955;28;20221;-82
2021/12/01 00:55:53;;;;;;;0.20;0.10;;;;;;;7.35;65.53;98531.25;5069681;28;20222;-83
2021/12/01 00:58:36;;;;;;;0.00;0.00;;;;;;;7.21;65.65;98521.00;5045307;23;20234;-83
2021/12/01 01:01:04;;;;;;;1.00;0.10;;;;;;;7.40;65.17;98519.91;5051073;28;20225;-83
2021/12/01 01:03:39;;;;;;;0.00;0.00;;;;;;;7.45;65.20;98528.06;5049566;28;20232;-83
2021/12/01 01:06:09;;;;;;;0.00;0.00;;;;;;;7.44;65.08;98507.75;5033844;28;20238;-83
2021/12/01 01:08:42;;;;;;;0.00;0.00;;;;;;;7.45;65.35;98531.53;5052763;23;20229;-83
2021/12/01 01:16:54;;;;;;;0.00;0.00;;;;;;;7.56;65.80;98529.94;5057392;28;20239;-83
2021/12/01 01:19:21;;;;;;;0.00;0.00;;;;;;;7.64;65.13;98528.81;5071417;28;20244;-83
2021/12/01 01:21:51;;;;;;;0.10;0.10;;;;;;;7.51;65.85;98522.59;5037658;28;20253;-83
2021/12/01 01:24:20;;;;;;;0.10;0.10;;;;;;;7.57;65.40;98534.22;5071472;28;20236;-84
2021/12/01 01:27:09;;;;;;;0.03;0.00;;;;;;;7.64;65.21;98531.47;5074127;23;20228;-83
2021/12/01 01:29:37;;;;;;;0.10;0.10;;;;;;;7.55;65.16;98514.19;5072270;28;20229;-83
2021/12/01 01:32:11;;;;;;;0.10;0.00;;;;;;;7.65;65.68;98530.44;5073265;28;20232;-83
2021/12/01 01:34:58;;;;;;;0.03;0.03;;;;;;;7.55;65.63;98528.31;5090652;28;20292;-83
2021/12/01 01:37:30;;;;;;;0.00;0.00;;;;;;;7.68;65.41;98516.66;5090297;28;20216;-84
2021/12/01 01:39:57;;;;;;;0.20;0.20;;;;;;;7.66;65.53;98524.03;5049586;23;20233;-82
2021/12/01 01:42:29;;;;;;;0.00;0.00;;;;;;;7.84;65.57;98523.97;5072598;28;20247;-83
2021/12/01 01:44:59;;;;;;;0.10;0.10;;;;;;;7.74;65.75;98545.88;5073393;28;20225;-83
2021/12/01 01:50:36;;;;;;;0.00;0.00;;;;;;;7.83;65.10;98531.19;5041358;23;20260;-83
2021/12/01 01:53:17;;;;;;;0.07;0.07;;;;;;;7.90;64.54;98518.56;5040324;28;20209;-83
2021/12/01 01:56:25;;;;;;;0.00;0.00;;;;;;;7.93;65.03;98504.75;5052287;28;20198;-84
2021/12/01 01:58:55;;;;;;;0.10;0.10;;;;;;;7.91;65.36;98511.38;5047340;28;20260;-83
2021/12/01 02:01:43;;;;;;;0.10;0.10;;;;;;;7.79;65.36;98508.66;5063542;28;20210;-83
2021/12/01 02:04:17;;;;;;;0.83;0.13;;;;;;;7.92;65.09;98508.47;5047345;28;20221;-83
2021/12/01 02:06:49;;;;;;;0.00;0.00;;;;;;;7.97;64.63;98507.78;5052349;28;20209;-83
2021/12/01 02:09:20;;;;;;;0.93;0.10;;;;;;;8.01;65.24;98508.13;5056656;28;20256;-83
2021/12/01 02:12:14;;;;;;;0.17;0.10;;;;;;;7.88;64.80;98485.97;5138035;23;20232;-83
2021/12/01 02:14:44;;;;;;;0.00;0.00;;;;;;;7.97;65.01;98492.59;5061239;23;20230;-82
2021/12/01 02:17:26;;;;;;;0.00;0.00;;;;;;;7.78;66.00;98475.06;5036171;28;20209;-83
2021/12/01 02:19:58;;;;;;;0.30;0.20;;;;;;;7.79;66.12;98444.66;5076762;22;20244;-84
2021/12/01 02:22:35;;;;;;;0.00;0.00;;;;;;;7.90;65.66;98461.72;5058605;28;20228;-82
2021/12/01 02:25:02;;;;;;;0.10;0.10;;;;;;;7.72;65.40;98440.50;5071406;28;20239;-82
2021/12/01 02:27:29;;;;;;;0.10;0.10;;;;;;;7.76;65.99;98455.00;5091767;28;20248;-83
2021/12/01 02:29:56;;;;;;;0.20;0.20;;;;;;;7.74;65.43;98439.25;5080914;23;20203;-83
2021/12/01 02:32:23;;;;;;;0.20;0.10;;;;;;;7.80;65.63;98446.31;5052939;23;20297;-83
2021/12/01 02:35:06;;;;;;;0.57;0.20;;;;;;;7.68;65.82;98424.16;5056810;28;20237;-83
2021/12/01 02:37:38;;;;;;;0.20;0.10;;;;;;;7.76;66.07;98439.81;5054407;28;20228;-84
2021/12/01 02:40:07;;;;;;;0.43;0.10;;;;;;;7.61;66.41;98435.94;5074598;28;20250;-83
2021/12/01 02:42:38;;;;;;;0.00;0.00;;;;;;;7.74;66.55;98428.56;5074710;28;20217;-83
2021/12/01 02:45:33;;;;;;;0.10;0.10;;;;;;;7.73;66.17;98420.81;5073378;28;20233;-83
2021/12/01 02:48:03;;;;;;;0.00;0.00;;;;;;;7.75;66.85;98446.19;5039282;28;20233;-83
2021/12/01 02:50:34;;;;;;;0.10;0.10;;;;;;;7.79;65.89;98435.88;5057338;28;20225;-83
2021/12/01 02:53:09;;;;;;;0.10;0.10;;;;;;;7.78;66.41;98419.06;5074487;28;20244;-83
2021/12/01 02:56:15;;;;;;;0.70;0.10;;;;;;;7.78;66.69;98427.06;5041464;28;20216;-84
2021/12/01 03:01:23;;;;;;;0.10;0.10;;;;;;;7.74;66.63;98467.75;5011362;28;20334;-83
2021/12/01 03:03:52;;;;;;;0.10;0.10;;;;;;;7.70;67.05;98461.25;4991736;28;20211;-83
2021/12/01 03:06:22;;;;;;;0.00;0.00;;;;;;;7.71;67.01;98450.34;4987217;28;20263;-83
2021/12/01 03:08:50;;;;;;;0.10;0.10;;;;;;;7.71;67.11;98478.84;4989594;28;20238;-83
2021/12/01 03:11:18;;;;;;;0.10;0.10;;;;;;;7.58;67.12;98452.41;4996784;28;20321;-83
2021/12/01 03:14:11;;;;;;;0.10;0.10;;;;;;;7.64;67.07;98478.97;5012687;28;20231;-83
2021/12/01 03:16:40;;;;;;;0.10;0.10;;;;;;;7.55;67.92;98485.69;5029013;23;20217;-83
2021/12/01 03:19:08;;;;;;;0.10;0.10;;;;;;;7.42;68.44;98475.19;5078375;23;20245;-83
2021/12/01 03:21:47;;;;;;;0.40;0.10;;;;;;;7.37;68.65;98475.88;5037128;28;20225;-83
2021/12/01 03:24:14;;;;;;;0.17;0.10;;;;;;;7.38;68.38;98477.50;5071290;28;20255;-83
2021/12/01 03:26:42;;;;;;;0.10;0.10;;;;;;;7.27;69.44;98472.16;5053424;28;20233;-84
2021/12/01 03:29:14;;;;;;;0.10;0.10;;;;;;;7.34;68.77;98476.31;5044049;23;20232;-84
2021/12/01 03:31:45;;;;;;;0.10;0.10;;;;;;;7.49;68.85;98479.41;5069600;23;20543;-83
2021/12/01 03:34:12;;;;;;;0.10;0.10;;;;;;;7.43;68.46;98479.47;5099879;23;20205;-83
2021/12/01 03:36:40;;;;;;;0.10;0.10;;;;;;;7.39;68.07;98470.31;5052184;28;20220;-83
2021/12/01 03:39:11;;;;;;;0.03;0.03;;;;;;;7.60;67.89;98491.13;5060102;23;20237;-83
2021/12/01 03:41:39;;;;;;;0.10;0.10;;;;;;;7.53;67.96;98461.91;5020726;28;20184;-82
2021/12/01 03:44:28;;;;;;;0.03;0.00;;;;;;;7.53;67.93;98471.75;5070780;28;20245;-83
2021/12/01 03:46:59;;;;;;;0.20;0.20;;;;;;;7.74;67.57;98465.09;5071303;23;20282;-84
2021/12/01 03:49:26;;;;;;;0.10;0.10;;;;;;;7.82;67.15;98462.06;5030592;28;20289;-83
2021/12/01 03:51:55;;;;;;;0.20;0.13;;;;;;;7.72;67.00;98459.97;5050004;28;20642;-83
2021/12/01 03:54:22;;;;;;;0.53;0.10;;;;;;;7.74;67.23;98457.09;5018338;28;20252;-83
2021/12/01 03:56:49;;;;;;;0.10;0.10;;;;;;;7.77;67.44;98460.09;5018519;28;20256;-84
2021/12/01 03:59:20;;;;;;;0.10;0.10;;;;;;;7.79;67.07;98458.00;5018118;28;20253;-83
2021/12/01 04:01:47;;;;;;;0.10;0.10;;;;;;;7.81;67.34;98457.78;5034627;28;20241;-82
2021/12/01 04:04:15;;;;;;;0.10;0.10;;;;;;;7.86;67.35;98468.56;5031660;28;20720;-82
2021/12/01 04:06:45;;;;;;;0.10;0.10;;;;;;;7.97;66.64;98457.13;5014929;28;20226;-83
2021/12/01 04:09:14;;;;;;;0.10;0.10;;;;;;;8.00;66.53;98455.81;5048645;28;20233;-82
2021/12/01 04:12:14;;;;;;;0.17;0.17;;;;;;;8.11;66.68;98476.38;5049346;28;20232;-83
2021/12/01 04:14:41;;;;;;;0.20;0.10;;;;;;;8.07;66.43;98478.66;5011009;28;20226;-81
2021/12/01 04:17:11;;;;;;;0.13;0.13;;;;;;;8.17;66.57;98484.25;5013430;28;20282;-82
2021/12/01 04:19:40;;;;;;;0.30;0.30;;;;;;;8.10;66.91;98480.06;5030597;28;20215;-83
2021/12/01 04:22:07;;;;;;;0.10;0.10;;;;;;;8.16;66.58;98484.50;5029958;28;20245;-82
2021/12/01 04:24:39;;;;;;;0.47;0.10;;;;;;;8.05;67.74;98491.44;5028638;28;20227;-82
2021/12/01 04:27:14;;;;;;;0.10;0.10;;;;;;;8.10;67.63;98501.41;5043564;23;20224;-83
2021/12/01 04:29:44;;;;;;;0.13;0.13;;;;;;;8.08;67.37;98492.81;5052616;28;20224;-83
2021/12/01 04:32:11;;;;;;;0.33;0.20;;;;;;;8.05;67.10;98493.28;5051386;28;20522;-82
2021/12/01 04:34:42;;;;;;;0.20;0.20;;;;;;;8.08;67.60;98488.31;5067591;28;20612;-82
2021/12/01 04:37:09;;;;;;;0.20;0.20;;;;;;;8.08;67.60;98487.47;5150771;23;20235;-83
2021/12/01 04:39:37;;;;;;;0.13;0.10;;;;;;;8.18;66.88;98479.72;5068606;28;20216;-83
2021/12/01 04:42:06;;;;;;;0.20;0.20;;;;;;;8.22;66.90;98504.91;5066545;28;20237;-82
2021/12/01 04:44:37;;;;;;;0.27;0.20;;;;;;;8.13;67.03;98490.28;5053994;28;20217;-82
2021/12/01 04:47:14;;;;;;;0.93;0.10;;;;;;;8.24;67.07;98508.97;5054894;28;20245;-82
2021/12/01 04:49:46;;;;;;;0.20;0.10;;;;;;;8.33;66.90;98514.81;5072593;28;20225;-82
2021/12/01 04:52:23;;;;;;;0.10;0.10;;;;;;;8.34;66.86;98516.44;5055476;28;20199;-83
2021/12/01 04:54:59;;;;;;;0.30;0.30;;;;;;;8.36;66.98;98512.47;5072287;28;20228;-82
2021/12/01 04:57:28;;;;;;;0.20;0.20;;;;;;;8.34;66.73;98497.75;5066864;28;20306;-83
2021/12/01 04:59:57;;;;;;;0.23;0.23;;;;;;;8.30;66.72;98504.59;5073792;22;20233;-82
2021/12/01 05:02:24;;;;;;;0.20;0.20;;;;;;;8.39;66.55;98495.19;5045004;28;20232;-82
2021/12/01 05:04:51;;;;;;;0.20;0.20;;;;;;;8.26;67.09;98482.84;5034673;28;20212;-82
2021/12/01 05:07:33;;;;;;;0.10;0.10;;;;;;;8.39;66.80;98497.88;5039364;23;20249;-83
2021/12/01 05:10:00;;;;;;;0.20;0.20;;;;;;;8.34;66.77;98503.09;5031224;28;20198;-82
2021/12/01 05:12:27;;;;;;;0.77;0.40;;;;;;;8.37;67.03;98505.28;5027925;28;20233;-83
2021/12/01 05:14:57;;;;;;;0.20;0.20;;;;;;;8.47;67.04;98494.03;5070390;23;20232;-82
2021/12/01 05:17:46;;;;;;;0.20;0.20;;;;;;;8.31;66.96;98492.84;5063900;22;20256;-82
2021/12/01 05:20:18;;;;;;;0.20;0.20;;;;;;;8.27;67.78;98502.34;5071955;28;20230;-82
2021/12/01 05:22:46;;;;;;;0.20;0.20;;;;;;;8.40;67.20;98524.31;5061498;28;20231;-82
2021/12/01 05:25:18;;;;;;;0.40;0.17;;;;;;;8.24;68.04;98506.31;4980880;28;20220;-82
2021/12/01 05:27:49;;;;;;;0.73;0.10;;;;;;;8.36;67.68;98514.31;4973948;28;20236;-83
2021/12/01 05:30:18;;;;;;;0.30;0.30;;;;;;;8.31;67.92;98516.88;4989935;28;20228;-82
2021/12/01 05:32:46;;;;;;;0.17;0.17;;;;;;;8.29;67.17;98510.94;5011690;23;20244;-82
2021/12/01 05:35:15;;;;;;;0.30;0.27;;;;;;;8.22;67.04;98511.03;5012178;28;20230;-83
2021/12/01 05:37:42;;;;;;;0.67;0.20;;;;;;;8.32;67.05;98511.31;5014547;28;20245;-82
2021/12/01 05:40:12;;;;;;;0.20;0.10;;;;;;;8.25;67.37;98521.28;5033117;28;20258;-83
2021/12/01 05:42:39;;;;;;;0.10;0.10;;;;;;;8.28;66.69;98511.97;5032648;28;20566;-82
2021/12/01 05:45:09;;;;;;;0.37;0.30;;;;;;;8.34;66.45;98524.44;5042755;23;20232;-83
2021/12/01 05:47:36;;;;;;;0.53;0.27;;;;;;;8.40;66.29;98528.81;5019373;28;20267;-83
2021/12/01 05:50:04;;;;;;;0.10;0.10;;;;;;;8.38;67.07;98520.25;5038048;28;20241;-83
2021/12/01 05:52:39;;;;;;;0.30;0.30;;;;;;;8.46;66.78;98533.25;5035996;28;20241;-82
2021/12/01 05:55:33;;;;;;;0.33;0.30;;;;;;;8.34;68.06;98527.94;5053679;28;20209;-83
2021/12/01 05:58:00;;;;;;;0.30;0.20;;;;;;;8.30;69.20;98541.97;5054953;28;20229;-82
2021/12/01 06:00:28;;;;;;;0.97;0.20;;;;;;;8.25;69.14;98529.28;5019601;28;20273;-82
2021/12/01 06:03:14;;;;;;;0.47;0.20;;;;;;;8.23;69.64;98528.69;5036412;28;20250;-82
2021/12/01 06:05:43;;;;;;;0.50;0.40;;;;;;;8.16;70.22;98527.19;5026807;28;20276;-82
2021/12/01 06:08:10;;;;;;;0.43;0.40;;;;;;;8.30;70.10;98524.09;5017765;28;20257;-83
2021/12/01 06:10:50;;;;;;;0.80;0.80;;;;;;;8.28;71.32;98530.66;5028889;28;20234;-83
2021/12/01 06:13:21;;;;;;;1.60;1.30;;;;;;;8.12;71.19;98518.03;5036302;28;20214;-82
2021/12/01 06:15:54;;;;;;;1.80;0.60;;;;;;;8.15;71.60;98539.72;5044457;23;20695;-83
2021/12/01 06:18:24;;;;;;;1.37;0.40;;;;;;;8.12;71.89;98534.81;5044698;28;20272;-83
2021/12/01 06:20:58;;;;;;;0.80;0.50;;;;;;;8.02;71.57;98512.44;5024766;28;20234;-83
2021/12/01 06:23:25;;;;;;;0.70;0.60;;;;;;;8.01;71.40;98526.81;5025952;28;20329;-83
2021/12/01 06:25:52;;;;;;;0.40;0.40;;;;;;;8.08;70.81;98517.66;5033337;28;20226;-83
2021/12/01 06:28:53;;;;;;;0.97;0.47;;;;;;;7.92;71.19;98521.81;5058511;23;20230;-83
2021/12/01 06:31:42;;;;;;;0.57;0.40;;;;;;;7.92;71.47;98523.66;5052199;23;20237;-83
2021/12/01 06:34:32;;;;;;;0.20;0.20;;;;;;;7.93;71.45;98534.09;5059008;28;20248;-83
2021/12/01 06:37:02;;;;;;;0.20;0.20;;;;;;;8.07;71.61;98537.34;5072786;28;20206;-82
2021/12/01 06:39:34;;;;;;;0.30;0.17;;;;;;;7.83;71.15;98512.53;5053280;28;20254;-82
2021/12/01 06:42:02;;;;;;;0.20;0.20;;;;;;;8.08;70.80;98514.16;5062480;28;20346;-83
2021/12/01 06:44:30;;;;;;;0.73;0.10;;;;;;;8.09;70.90;98513.94;5049710;28;20201;-82
2021/12/01 06:46:58;;;;;;;1.03;0.30;;;;;;;8.08;70.94;98516.84;5065243;28;20322;-82
2021/12/01 06:49:27;;;;;;;0.43;0.20;;;;;;;8.05;70.93;98520.78;5050182;28;20581;-82
2021/12/01 06:52:14;;;;;;;0.27;0.27;;;;;;;8.06;71.43;98511.75;5049589;28;20221;-83
2021/12/01 06:54:44;;;;;;;0.40;0.30;;;;;;;7.99;71.02;98508.34;5048208;28;20185;-82
2021/12/01 06:57:16;;;;;;;0.97;0.30;;;;;;;8.02;71.67;98512.44;5067360;28;20217;-82
2021/12/01 06:59:45;;;;;;;0.33;0.30;;;;;;;8.10;71.34;98528.09;5068529;28;20229;-83
2021/12/01 07:02:17;;;;;;;0.50;0.50;;;;;;;8.09;71.82;98529.94;5075978;23;20232;-83
2021/12/01 07:08:03;;;;;;;0.37;0.33;;;;;;;7.98;71.96;98512.06;5069722;28;20241;-83
2021/12/01 07:10:40;;;;;;;0.30;0.30;;;;;;;7.89;72.76;98500.91;5026973;28;20229;-85
2021/12/01 07:13:18;;;;;;;1.50;0.40;;;;;;;8.01;72.94;98527.63;5070638;28;20299;-85
2021/12/01 07:15:49;;;;;;;0.40;0.40;;;;;;;7.82;73.41;98502.06;5051386;28;20225;-85
2021/12/01 07:18:24;;;;;;;0.47;0.40;;;;;;;7.96;73.90;98525.66;5064818;28;20233;-82
2021/12/01 07:20:51;;;;;;;1.60;0.60;;;;;;;7.98;74.25;98525.41;5049894;28;20193;-83
2021/12/01 07:23:18;;;;;;;1.47;0.70;;;;;;;8.05;73.95;98538.63;5062416;28;20236;-83
2021/12/01 07:26:03;;;;;;;0.90;0.60;;;;;;;8.00;73.91;98527.84;5046772;28;20225;-82
2021/12/01 07:28:30;;;;;;;0.97;0.50;;;;;;;8.05;73.85;98533.31;5062791;28;20229;-83
2021/12/01 07:31:02;;;;;;;3.20;0.57;;;;;;;8.04;74.54;98535.16;5024313;28;20308;-83
2021/12/01 07:33:29;;;;;;;0.70;0.50;;;;;;;7.99;74.60;98527.03;5024528;28;20230;-83
2021/12/01 07:35:59;;;;;;;1.07;0.43;;;;;;;8.03;74.37;98516.72;5024233;28;20226;-82
2021/12/01 07:38:26;;;;;;;1.50;0.40;;;;;;;8.16;74.29;98543.19;5036074;28;20298;-83
2021/12/01 07:40:54;;;;;;;0.30;0.30;;;;;;;8.14;74.18;98522.06;5045869;28;20663;-83
2021/12/01 07:43:21;;;;;;;0.50;0.40;;;;;;;8.13;74.81;98512.44;5045491;28;20170;-83
2021/12/01 07:45:49;;;;;;;0.67;0.60;;;;;;;8.15;74.63;98507.69;5045256;28;20237;-83
2021/12/01 07:48:17;;;;;;;1.70;0.80;;;;;;;8.17;74.64;98500.25;5043194;28;20261;-83
2021/12/01 07:50:57;;;;;;;0.80;0.60;;;;;;;8.28;74.60;98501.31;5041334;28;20249;-82
2021/12/01 07:53:25;;;;;;;0.67;0.53;;;;;;;8.36;74.47;98496.47;5026394;28;20232;-83
2021/12/01 07:55:52;;;;;;;0.60;0.60;;;;;;;8.44;74.23;98489.97;5026040;28;20299;-83
2021/12/01 07:58:19;;;;;;;1.03;0.40;;;;;;;8.50;73.99;98483.69;5024830;28;20261;-83
2021/12/01 08:00:46;;;;;;;0.40;0.40;;;;;;;8.56;73.29;98476.59;5025580;28;20226;-83
2021/12/01 08:03:15;;;;;;;0.90;0.60;;;;;;;8.64;73.26;98494.94;4898328;28;3804459;-83
2021/12/01 08:05:56;;;;;;;0.50;0.30;;;;;;;8.81;71.96;98498.53;5035668;28;20616;-83
2021/12/01 08:08:25;;;;;;;0.30;0.23;;;;;;;8.86;71.95;98482.59;5031874;28;20245;-83
2021/12/01 08:10:58;;;;;;;0.50;0.50;;;;;;;8.94;71.12;98479.56;5049114;28;20211;-83
2021/12/01 08:13:27;;;;;;;0.50;0.30;;;;;;;8.91;70.74;98466.69;5065691;28;20242;-83
2021/12/01 08:16:00;;;;;;;0.80;0.50;;;;;;;9.03;70.75;98475.47;5066417;28;20217;-83
2021/12/01 08:18:55;;;;;;;1.00;0.30;;;;;;;9.14;70.03;98461.25;5066905;28;20237;-83
2021/12/01 08:21:23;;;;;;;1.13;0.30;;;;;;;9.44;68.94;98470.88;5051208;28;20177;-83
2021/12/01 08:24:08;;;;;;;0.30;0.30;;;;;;;9.68;67.66;98467.03;5065394;28;20244;-83
2021/12/01 08:26:38;;;;;;;0.20;0.13;;;;;;;9.72;66.92;98444.09;5050161;28;20241;-83
2021/12/01 08:29:12;;;;;;;0.20;0.20;;;;;;;9.93;66.58;98456.75;5065427;28;20239;-83
2021/12/01 08:31:41;;;;;;;0.30;0.27;;;;;;;9.99;65.56;98454.94;5034305;28;20236;-83
2021/12/01 08:34:10;;;;;;;0.50;0.40;;;;;;;10.00;65.68;98446.69;5066605;28;20249;-84
2021/12/01 08:36:38;;;;;;;0.20;0.20;;;;;;;10.11;64.79;98450.31;5065209;28;20241;-83
2021/12/01 08:39:06;;;;;;;0.20;0.20;;;;;;;10.23;63.78;98445.72;5063507;23;20232;-84
2021/12/01 08:41:34;;;;;;;0.17;0.13;;;;;;;10.06;64.36;98435.00;5052499;28;20629;-83
2021/12/01 08:44:01;;;;;;;0.70;0.20;;;;;;;10.04;65.25;98450.47;5067246;28;20241;-83
2021/12/01 08:46:32;;;;;;;0.97;0.20;;;;;;;10.00;64.89;98454.72;5035889;28;20267;-83
2021/12/01 08:48:59;;;;;;;0.60;0.20;;;;;;;9.98;65.20;98448.00;5047981;28;20220;-83
2021/12/01 08:51:30;;;;;;;0.87;0.20;;;;;;;10.01;65.07;98440.28;5046694;28;20233;-83
2021/12/01 08:53:59;;;;;;;0.20;0.20;;;;;;;10.09;64.52;98433.69;5047691;28;20247;-83
2021/12/01 08:56:26;;;;;;;0.30;0.23;;;;;;;10.13;63.98;98424.13;5040014;23;20268;-83
2021/12/01 08:58:54;;;;;;;0.30;0.30;;;;;;;10.04;64.62;98434.44;5064455;28;20226;-83
2021/12/01 09:01:32;;;;;;;0.30;0.30;;;;;;;10.09;64.36;98437.19;5050218;28;20554;-82
2021/12/01 09:04:02;;;;;;;0.20;0.20;;;;;;;10.02;65.34;98431.19;5064738;28;20276;-83
2021/12/01 09:06:31;;;;;;;0.30;0.20;;;;;;;10.05;65.08;98427.22;5064701;28;20228;-82
2021/12/01 09:08:58;;;;;;;0.20;0.20;;;;;;;10.02;65.47;98404.44;5065268;28;20213;-83
2021/12/01 09:11:27;;;;;;;0.30;0.30;;;;;;;10.05;65.49;98411.16;5070516;28;20256;-83
2021/12/01 09:14:44;;;;;;;0.40;0.40;;;;;;;10.05;65.70;98416.50;5056605;28;20214;-83
2021/12/01 09:17:13;;;;;;;0.40;0.40;;;;;;;10.03;65.50;98408.72;5049874;28;20233;-82
2021/12/01 09:19:41;;;;;;;0.40;0.40;;;;;;;9.98;65.54;98402.50;5030513;28;20515;-83
2021/12/01 09:22:07;;;;;;;0.30;0.30;;;;;;;9.82;66.02;98406.81;5014292;28;20261;-83
2021/12/01 09:24:38;;;;;;;0.40;0.40;;;;;;;9.72;66.76;98410.13;5014318;28;20214;-83
2021/12/01 09:27:06;;;;;;;0.80;0.60;;;;;;;9.73;66.65;98411.75;5029648;28;20233;-83
2021/12/01 09:29:34;;;;;;;0.63;0.40;;;;;;;9.75;67.29;98410.72;4997816;28;20333;-83
2021/12/01 09:32:04;;;;;;;0.70;0.50;;;;;;;9.71;67.39;98400.47;5026029;28;20229;-82
2021/12/01 09:34:31;;;;;;;2.07;1.73;;;;;;;9.63;67.65;98400.88;5050078;28;20288;-83
2021/12/01 09:36:58;;;;;;;2.77;2.23;;;;;;;9.64;68.69;98413.22;5032979;28;20230;-83
2021/12/01 09:39:29;;;;;;;2.50;2.30;;;;;;;9.56;69.20;98402.94;5030812;28;20210;-83
2021/12/01 09:41:58;;;;;;;2.53;2.33;;;;;;;9.51;70.23;98391.34;5029461;28;20268;-83
2021/12/01 09:44:25;;;;;;;2.20;2.00;;;;;;;9.47;70.73;98392.88;5028278;28;20233;-83
2021/12/01 09:46:55;;;;;;;1.97;1.80;;;;;;;9.40;70.54;98373.50;5012370;28;20243;-82
2021/12/01 09:49:23;;;;;;;5.63;3.40;;;;;;;9.41;71.43;98386.63;5066334;28;20275;-83
2021/12/01 09:51:53;;;;;;;3.30;2.90;;;;;;;9.40;70.84;98378.84;5031786;28;20547;-83
2021/12/01 09:54:28;;;;;;;3.27;2.97;;;;;;;9.28;72.59;98370.91;5050520;28;20213;-83
2021/12/01 09:56:56;;;;;;;3.93;3.53;;;;;;;9.19;72.50;98356.31;5033787;28;20284;-83
2021/12/01 09:59:23;;;;;;;3.00;2.70;;;;;;;9.18;71.40;98344.00;5047593;28;20233;-83
2021/12/01 10:01:49;;;;;;;3.90;3.50;;;;;;;9.18;72.03;98330.66;5031007;28;20253;-83
2021/12/01 10:04:17;;;;;;;4.50;3.20;;;;;;;9.08;72.25;98325.13;5047838;28;20257;-83
2021/12/01 10:06:44;;;;;;;2.80;2.60;;;;;;;9.13;72.48;98331.38;5028151;28;20734;-84
2021/12/01 10:09:12;;;;;;;4.07;3.67;;;;;;;9.14;72.64;98318.81;5012208;28;20202;-83
2021/12/01 10:11:42;;;;;;;4.80;3.47;;;;;;;9.31;72.70;98337.53;5025792;28;20234;-82
2021/12/01 10:14:19;;;;;;;5.10;4.30;;;;;;;9.40;72.42;98331.53;5024449;28;20230;-82
2021/12/01 10:16:52;;;;;;;4.60;4.00;;;;;;;9.40;73.41;98322.69;5042348;28;20229;-83
2021/12/01 10:19:20;;;;;;;3.93;3.50;;;;;;;9.51;72.93;98319.97;5045456;28;20229;-83
2021/12/01 10:21:50;;;;;;;4.77;3.80;;;;;;;9.77;72.11;98323.00;5011734;28;20268;-83
2021/12/01 10:24:23;;;;;;;4.40;4.00;;;;;;;9.93;71.27;98319.50;5041635;28;20229;-83
2021/12/01 10:26:54;;;;;;;7.47;4.17;;;;;;;10.18;70.08;98332.41;5047293;28;20686;-82
2021/12/01 10:29:30;;;;;;;11.53;9.93;;;;;;;10.35;68.79;98328.63;5064792;28;20236;-82
2021/12/01 10:32:13;;;;;;;29.37;25.87;;;;;;;10.44;67.49;98318.28;5061736;28;20229;-83
2021/12/01 10:34:53;;;;;;;13.30;11.97;;;;;;;10.66;67.09;98308.34;5045519;28;20237;-83
2021/12/01 10:37:30;;;;;;;24.10;21.60;;;;;;;10.76;67.02;98313.81;5044801;28;20255;-83
2021/12/01 10:40:15;;;;;;;22.00;20.00;;;;;;;10.78;66.33;98300.19;5047138;28;20582;-83
2021/12/01 10:42:59;;;;;;;16.47;14.87;;;;;;;11.03;66.05;98292.38;5047813;28;20237;-83
2021/12/01 10:45:32;;;;;;;9.00;8.10;;;;;;;11.14;65.69;98287.91;5048114;28;20231;-83
2021/12/01 10:47:59;;;;;;;4.60;4.20;;;;;;;11.29;65.10;98291.50;5047535;28;20238;-83
2021/12/01 10:50:30;;;;;;;4.00;3.03;;;;;;;11.41;63.64;98286.78;5043907;28;20229;-84
2021/12/01 10:53:07;;;;;;;3.90;2.97;;;;;;;11.57;63.47;98274.28;5065782;28;20213;-83
2021/12/01 10:55:55;;;;;;;4.27;3.53;;;;;;;11.71;62.37;98266.59;5048242;28;20241;-83
2021/12/01 10:58:50;;;;;;;2.57;2.37;;;;;;;11.84;62.22;98263.50;5031680;28;20298;-83
2021/12/01 11:01:21;;;;;;;2.10;1.83;;;;;;;11.74;62.02;98252.69;5064869;28;20229;-83
2021/12/01 11:03:53;;;;;;;51.27;37.97;;;;;;;11.55;62.22;98232.69;5048393;28;20528;-83
2021/12/01 11:06:22;;;;;;;8.73;7.93;;;;;;;11.38;62.96;98235.56;5046321;28;20229;-83
2021/12/01 11:08:59;;;;;;;4.77;4.37;;;;;;;11.21;63.61;98219.59;5030874;28;20320;-83
2021/12/01 11:11:38;;;;;;;4.40;4.10;;;;;;;11.08;64.15;98222.72;5063495;28;20503;-83
2021/12/01 11:14:25;;;;;;;9.83;9.13;;;;;;;10.85;63.00;98194.41;5065265;28;20659;-83
2021/12/01 11:16:52;;;;;;;4.47;4.07;;;;;;;10.64;62.99;98186.47;5048477;28;20245;-83
2021/12/01 11:19:32;;;;;;;2.50;1.90;;;;;;;10.58;63.27;98194.47;5030712;28;20235;-83
2021/12/01 11:22:26;;;;;;;2.57;2.37;;;;;;;10.61;62.87;98190.47;5064707;28;20229;-83
2021/12/01 11:25:21;;;;;;;1.53;1.30;;;;;;;10.48;63.30;98188.19;5032000;28;20224;-83
2021/12/01 11:27:48;;;;;;;2.70;1.43;;;;;;;10.29;64.22;98169.00;5047803;28;20229;-84
2021/12/01 11:30:16;;;;;;;1.80;0.90;;;;;;;10.43;63.19;98164.88;5048714;28;20229;-83
2021/12/01 11:32:59;;;;;;;1.77;1.67;;;;;;;10.42;63.23;98165.91;5066609;28;20177;-83
2021/12/01 11:35:28;;;;;;;4.30;1.20;;;;;;;10.54;63.12;98163.09;5047286;28;20318;-83
2021/12/01 11:38:01;;;;;;;5.30;2.90;;;;;;;10.63;62.28;98158.88;5048423;28;20221;-83
2021/12/01 11:40:30;;;;;;;7.60;5.30;;;;;;;10.68;62.40;98150.09;5046152;28;20643;-83
2021/12/01 11:42:58;;;;;;;13.13;10.70;;;;;;;10.73;62.27;98139.41;5030613;28;20244;-82
2021/12/01 11:45:26;;;;;;;19.10;9.90;;;;;;;10.65;61.87;98113.88;5014509;28;20247;-83
2021/12/01 11:47:57;;;;;;;10.30;3.80;;;;;;;10.62;61.75;98119.78;5045456;28;20229;-83
2021/12/01 11:50:31;;;;;;;4.43;2.00;;;;;;;10.62;61.33;98125.13;5063225;28;20233;-83
2021/12/01 11:53:22;;;;;;;3.47;1.97;;;;;;;10.64;61.34;98135.59;5029291;28;20205;-83
2021/12/01 11:55:54;;;;;;;1.90;1.40;;;;;;;10.54;61.56;98125.59;5060966;28;20289;-83
2021/12/01 11:58:47;;;;;;;2.97;2.10;;;;;;;10.47;62.00;98120.44;5063254;28;20237;-83
2021/12/01 12:01:20;;;;;;;6.27;5.47;;;;;;;10.49;61.84;98114.84;5054912;28;20226;-84
2021/12/01 12:03:59;;;;;;;3.10;2.80;;;;;;;10.41;62.29;98102.72;5046039;28;20226;-82
2021/12/01 12:06:52;;;;;;;2.53;2.10;;;;;;;10.31;62.26;98089.25;5047048;28;20217;-83
2021/12/01 12:09:40;;;;;;;2.57;2.20;;;;;;;10.34;62.23;98091.44;5029529;28;20332;-83
2021/12/01 12:12:09;;;;;;;2.63;2.40;;;;;;;10.34;62.36;98087.94;5032163;23;20776;-83
2021/12/01 12:14:49;;;;;;;2.73;2.20;;;;;;;10.28;62.25;98080.91;5026942;28;20655;-84
2021/12/01 12:17:19;;;;;;;2.37;2.17;;;;;;;10.21;62.30;98083.81;5025641;28;20260;-83
2021/12/01 12:20:02;;;;;;;3.00;2.23;;;;;;;10.17;62.64;98085.41;5008645;28;20280;-83
2021/12/01 12:22:54;;;;;;;3.80;3.37;;;;;;;10.16;62.37;98073.06;5010462;28;20544;-83
2021/12/01 12:25:56;;;;;;;2.97;2.67;;;;;;;10.03;62.51;98066.22;5010669;28;20252;-83
2021/12/01 12:28:40;;;;;;;2.03;1.83;;;;;;;9.97;62.58;98058.41;5027007;28;20234;-83